Time;durP1;ratioP1;P1;durP2;ratioP2;P2;SDS_P1;SDS_P2;PMS_P1;PMS_P2;Temp;Humidity;BMP_temperature;BMP_pressure;BME280_temperature;BME280_humidity;BME280_pressure;Samples;Min_cycle;Max_cycle;Signal;HPM_P1;HPM_P2
2023/09/08 00:02:08;;;;;;;10.85;7.00;;;17.90;91.90;;;;;;4958429;28;20023;-80
2023/09/08 00:04:33;;;;;;;8.63;6.57;;;17.90;92.20;;;;;;4957450;28;20038;-80
2023/09/08 00:06:59;;;;;;;9.55;6.57;;;17.90;92.00;;;;;;4974031;28;20493;-81
2023/09/08 00:09:25;;;;;;;10.95;6.78;;;17.80;91.80;;;;;;4958604;28;20035;-81
2023/09/08 00:11:50;;;;;;;7.97;6.55;;;17.80;92.10;;;;;;4974139;28;20449;-80
2023/09/08 00:14:17;;;;;;;13.00;6.13;;;17.70;92.40;;;;;;4973668;28;20132;-80
2023/09/08 00:16:42;;;;;;;9.13;6.15;;;17.60;92.00;;;;;;4958422;28;20027;-80
2023/09/08 00:19:09;;;;;;;10.00;6.40;;;17.60;92.60;;;;;;4952761;28;20525;-80
2023/09/08 00:21:35;;;;;;;10.15;7.07;;;17.60;92.30;;;;;;4971853;28;20127;-81
2023/09/08 00:24:01;;;;;;;7.18;6.32;;;17.60;92.10;;;;;;4972476;28;20045;-81
2023/09/08 00:26:27;;;;;;;9.00;6.63;;;17.60;92.00;;;;;;4989555;28;20387;-81
2023/09/08 00:28:52;;;;;;;9.73;7.35;;;17.60;91.80;;;;;;4954797;28;20510;-81
2023/09/08 00:31:18;;;;;;;8.73;7.53;;;17.60;92.20;;;;;;4957986;28;20394;-80
2023/09/08 00:33:44;;;;;;;9.73;7.18;;;17.50;91.90;;;;;;4971351;28;20442;-81
2023/09/08 00:36:09;;;;;;;8.35;6.55;;;17.50;91.90;;;;;;4972496;28;20455;-79
2023/09/08 00:38:35;;;;;;;8.25;5.95;;;17.40;91.80;;;;;;4968649;28;20039;-81
2023/09/08 00:41:00;;;;;;;6.25;5.00;;;17.40;91.80;;;;;;4985054;28;20050;-81
2023/09/08 00:43:26;;;;;;;9.57;5.30;;;17.40;91.80;;;;;;4955905;28;20046;-80
2023/09/08 00:45:52;;;;;;;10.35;6.40;;;17.40;92.10;;;;;;4956509;28;20030;-80
2023/09/08 00:48:18;;;;;;;9.10;6.55;;;17.30;91.80;;;;;;4971700;28;20039;-80
2023/09/08 00:50:43;;;;;;;12.18;6.53;;;17.20;92.10;;;;;;4955424;28;20110;-81
2023/09/08 00:53:09;;;;;;;8.05;6.05;;;17.00;92.10;;;;;;4971567;28;21104;-80
2023/09/08 00:55:35;;;;;;;10.23;6.65;;;16.80;92.50;;;;;;4969491;28;20054;-80
2023/09/08 00:58:01;;;;;;;8.13;6.50;;;16.80;92.90;;;;;;4955408;28;20035;-81
2023/09/08 01:00:27;;;;;;;10.15;6.82;;;16.90;92.40;;;;;;4975676;28;20050;-80
2023/09/08 01:02:53;;;;;;;9.40;6.93;;;16.80;93.00;;;;;;4970613;28;20407;-81
2023/09/08 01:05:19;;;;;;;11.57;7.45;;;16.90;92.40;;;;;;4959335;28;20166;-81
2023/09/08 01:07:45;;;;;;;8.13;6.90;;;16.80;92.70;;;;;;4973837;28;20408;-80
2023/09/08 01:10:11;;;;;;;9.00;6.90;;;16.80;92.40;;;;;;4973958;28;20030;-80
2023/09/08 01:12:37;;;;;;;7.28;6.55;;;16.90;92.40;;;;;;4973916;28;20039;-81
2023/09/08 01:15:03;;;;;;;14.40;7.55;;;16.70;92.40;;;;;;4969740;28;20034;-81
2023/09/08 01:17:28;;;;;;;9.60;7.22;;;16.80;92.30;;;;;;4968233;28;20035;-80
2023/09/08 01:19:55;;;;;;;9.70;7.22;;;16.70;92.40;;;;;;4972993;28;20049;-80
2023/09/08 01:22:35;;;;;;;9.13;5.93;;;16.70;92.20;;;;;;4975240;28;20041;-81
2023/09/08 01:25:04;;;;;;;12.25;5.15;;;16.70;92.20;;;;;;4972679;28;20476;-80
2023/09/08 01:27:33;;;;;;;6.38;4.93;;;16.70;92.10;;;;;;4971435;28;20091;-80
2023/09/08 01:29:59;;;;;;;7.57;5.72;;;16.70;92.00;;;;;;4974325;28;20038;-81
2023/09/08 01:32:25;;;;;;;12.25;6.38;;;16.60;92.10;;;;;;4952419;28;20031;-80
2023/09/08 01:34:51;;;;;;;9.23;6.70;;;16.60;91.90;;;;;;4952386;28;20030;-80
2023/09/08 01:37:17;;;;;;;10.93;7.20;;;16.30;92.20;;;;;;4971294;28;20038;-80
2023/09/08 01:39:42;;;;;;;8.52;6.82;;;16.30;93.50;;;;;;4970472;28;20046;-80
2023/09/08 01:42:08;;;;;;;9.73;7.35;;;16.20;93.00;;;;;;4971612;28;20042;-80
2023/09/08 01:44:33;;;;;;;7.93;6.63;;;16.20;93.20;;;;;;4973227;28;20039;-80
2023/09/08 01:46:59;;;;;;;11.32;7.38;;;16.20;93.40;;;;;;4970625;28;20042;-80
2023/09/08 01:49:25;;;;;;;11.07;8.23;;;16.10;94.30;;;;;;4955158;28;20023;-80
2023/09/08 01:51:50;;;;;;;10.90;7.25;;;16.00;93.80;;;;;;4969603;28;20035;-80
2023/09/08 01:54:16;;;;;;;8.88;7.32;;;16.10;94.50;;;;;;4971943;28;20039;-81
2023/09/08 01:56:41;;;;;;;19.73;8.15;;;16.00;93.90;;;;;;4976931;28;20418;-81
2023/09/08 01:59:07;;;;;;;9.52;6.90;;;15.90;94.30;;;;;;4972969;28;20059;-81
2023/09/08 02:01:32;;;;;;;10.63;7.22;;;15.90;94.40;;;;;;4976158;28;20308;-81
2023/09/08 02:03:58;;;;;;;8.60;7.55;;;15.80;94.50;;;;;;4970708;28;20069;-81
2023/09/08 02:06:24;;;;;;;9.57;7.63;;;15.80;94.60;;;;;;4988242;28;20026;-80
2023/09/08 02:08:49;;;;;;;11.27;7.63;;;15.80;94.90;;;;;;4952584;28;20039;-80
2023/09/08 02:11:15;;;;;;;11.32;8.07;;;15.80;95.10;;;;;;4969313;28;20062;-80
2023/09/08 02:13:42;;;;;;;10.07;7.47;;;15.70;96.00;;;;;;4950743;28;20030;-80
2023/09/08 02:16:08;;;;;;;16.73;8.05;;;15.70;96.90;;;;;;4975688;28;20057;-80
2023/09/08 02:18:33;;;;;;;9.93;7.75;;;15.70;96.20;;;;;;4957013;28;20067;-80
2023/09/08 02:20:59;;;;;;;14.43;7.45;;;15.70;96.70;;;;;;4951350;28;20031;-80
2023/09/08 02:23:24;;;;;;;9.02;7.90;;;15.60;97.10;;;;;;4969173;28;20089;-80
2023/09/08 02:25:50;;;;;;;9.25;8.00;;;15.70;96.90;;;;;;5004649;28;20093;-79
2023/09/08 02:28:15;;;;;;;11.82;8.32;;;15.70;97.60;;;;;;4974939;28;20041;-80
2023/09/08 02:30:41;;;;;;;11.07;8.40;;;15.60;97.50;;;;;;4971209;28;20027;-80
2023/09/08 02:33:06;;;;;;;8.52;7.63;;;15.50;97.20;;;;;;4954557;28;20117;-80
2023/09/08 02:35:36;;;;;;;8.98;8.05;;;15.50;99.10;;;;;;4967332;28;20058;-80
2023/09/08 02:38:02;;;;;;;10.90;7.68;;;15.40;98.80;;;;;;4967376;28;20443;-79
2023/09/08 02:40:27;;;;;;;9.88;7.55;;;15.40;99.90;;;;;;4953620;28;20031;-79
2023/09/08 02:42:53;;;;;;;8.18;7.38;;;15.40;99.90;;;;;;4966951;28;20533;-79
2023/09/08 02:45:18;;;;;;;12.80;7.70;;;15.40;99.90;;;;;;4970236;28;20079;-80
2023/09/08 02:47:44;;;;;;;10.85;7.43;;;15.30;99.90;;;;;;4969612;28;20050;-80
2023/09/08 02:50:10;;;;;;;9.18;7.82;;;15.40;99.90;;;;;;4973615;28;20027;-80
2023/09/08 02:52:35;;;;;;;9.55;7.82;;;15.40;99.90;;;;;;4971755;28;20078;-80
2023/09/08 02:55:01;;;;;;;11.07;8.07;;;15.50;99.90;;;;;;4954404;28;20036;-80
2023/09/08 02:57:27;;;;;;;8.85;7.95;;;15.40;99.90;;;;;;4969718;28;20084;-80
2023/09/08 02:59:52;;;;;;;11.52;8.23;;;15.30;99.90;;;;;;4972399;28;20115;-79
2023/09/08 03:02:18;;;;;;;12.73;8.57;;;15.20;99.90;;;;;;4972893;28;20448;-79
2023/09/08 03:04:44;;;;;;;9.07;7.35;;;15.20;99.90;;;;;;4973067;28;20435;-79
2023/09/08 03:07:09;;;;;;;8.63;7.47;;;15.20;99.90;;;;;;4973198;28;20114;-80
2023/09/08 03:09:35;;;;;;;13.60;8.43;;;15.30;99.90;;;;;;4972225;28;20070;-80
2023/09/08 03:12:01;;;;;;;10.00;8.20;;;15.20;99.90;;;;;;4965802;28;20443;-80
2023/09/08 03:14:27;;;;;;;9.23;7.82;;;15.20;99.90;;;;;;4976896;28;20114;-80
2023/09/08 03:16:53;;;;;;;10.80;8.98;;;15.00;99.90;;;;;;4976547;28;20678;-80
2023/09/08 03:19:18;;;;;;;9.20;8.20;;;14.90;99.90;;;;;;4981145;28;20050;-80
2023/09/08 03:21:44;;;;;;;12.93;8.45;;;14.90;99.90;;;;;;4983619;28;20113;-79
2023/09/08 03:24:10;;;;;;;10.18;8.23;;;14.90;99.90;;;;;;4982736;28;20039;-79
2023/09/08 03:26:35;;;;;;;14.13;8.15;;;14.90;99.90;;;;;;4987545;28;20027;-80
2023/09/08 03:29:01;;;;;;;9.60;8.10;;;14.90;99.90;;;;;;4980123;28;20038;-80
2023/09/08 03:31:27;;;;;;;12.80;8.18;;;14.90;99.90;;;;;;4981050;28;20125;-80
2023/09/08 03:33:52;;;;;;;12.60;8.75;;;14.90;99.90;;;;;;4981753;28;20039;-80
2023/09/08 03:36:22;;;;;;;12.85;8.90;;;14.90;99.90;;;;;;4978439;28;20046;-80
2023/09/08 03:38:47;;;;;;;12.00;9.15;;;14.90;99.90;;;;;;4972921;28;20035;-80
2023/09/08 03:41:13;;;;;;;12.13;8.70;;;14.90;99.90;;;;;;4972521;28;20027;-81
2023/09/08 03:43:38;;;;;;;11.25;9.07;;;14.90;99.90;;;;;;4956212;28;20584;-81
2023/09/08 03:46:04;;;;;;;12.40;8.60;;;14.80;99.90;;;;;;4958900;28;20057;-81
2023/09/08 03:48:30;;;;;;;9.68;8.68;;;14.90;99.90;;;;;;4973485;28;20031;-81
2023/09/08 03:50:55;;;;;;;13.57;8.32;;;14.80;99.90;;;;;;4976794;28;20039;-81
2023/09/08 03:53:21;;;;;;;11.30;8.13;;;14.80;99.90;;;;;;4976062;28;20041;-81
2023/09/08 03:55:46;;;;;;;14.70;8.38;;;14.80;99.90;;;;;;4973334;28;20062;-81
2023/09/08 03:58:12;;;;;;;12.00;9.80;;;14.70;99.90;;;;;;4973402;28;20038;-81
2023/09/08 04:00:37;;;;;;;10.55;9.30;;;14.60;99.90;;;;;;4973554;28;20034;-82
2023/09/08 04:03:03;;;;;;;10.75;8.90;;;14.70;99.90;;;;;;4972813;28;20027;-81
2023/09/08 04:05:29;;;;;;;10.90;8.82;;;14.70;99.90;;;;;;4975047;28;20038;-81
2023/09/08 04:07:54;;;;;;;15.30;8.88;;;14.70;99.90;;;;;;4977419;28;20023;-80
2023/09/08 04:10:21;;;;;;;10.85;8.77;;;14.70;99.90;;;;;;4975843;28;20030;-81
2023/09/08 04:12:47;;;;;;;11.57;8.77;;;14.70;99.90;;;;;;4978953;28;20049;-81
2023/09/08 04:15:12;;;;;;;10.20;9.05;;;14.60;99.90;;;;;;4958150;28;20034;-79
2023/09/08 04:17:38;;;;;;;14.30;8.52;;;14.60;99.90;;;;;;4975559;28;20573;-80
2023/09/08 04:20:05;;;;;;;10.98;9.77;;;14.60;99.90;;;;;;4972051;28;20041;-80
2023/09/08 04:22:31;;;;;;;12.90;8.98;;;14.60;99.90;;;;;;4977021;28;20525;-79
2023/09/08 04:24:57;;;;;;;11.73;8.75;;;14.60;99.90;;;;;;4971918;28;20494;-80
2023/09/08 04:27:23;;;;;;;11.18;8.63;;;14.50;99.90;;;;;;4957553;28;20048;-80
2023/09/08 04:29:48;;;;;;;15.93;9.50;;;14.50;99.90;;;;;;4971395;28;20033;-80
2023/09/08 04:32:14;;;;;;;12.82;9.27;;;14.50;99.90;;;;;;4957802;28;20026;-80
2023/09/08 04:34:40;;;;;;;16.17;9.23;;;14.40;99.90;;;;;;4973926;28;20042;-79
2023/09/08 04:37:06;;;;;;;10.93;9.13;;;14.50;99.90;;;;;;4972058;28;20567;-80
2023/09/08 04:39:33;;;;;;;12.00;8.75;;;14.40;99.90;;;;;;4973502;28;20114;-80
2023/09/08 04:41:58;;;;;;;13.15;9.85;;;14.40;99.90;;;;;;4988370;28;20042;-80
2023/09/08 04:44:30;;;;;;;14.15;9.13;;;14.40;99.90;;;;;;4957865;28;20050;-80
2023/09/08 04:46:55;;;;;;;9.98;8.55;;;14.30;99.90;;;;;;4975998;28;20045;-80
2023/09/08 04:49:21;;;;;;;12.27;9.00;;;14.40;99.90;;;;;;4960472;28;20133;-81
2023/09/08 04:51:47;;;;;;;10.80;8.32;;;14.30;99.90;;;;;;4957651;28;20043;-80
2023/09/08 04:54:13;;;;;;;12.98;9.18;;;14.40;99.90;;;;;;4960975;28;20039;-80
2023/09/08 04:56:39;;;;;;;9.65;8.65;;;14.30;99.90;;;;;;4972985;28;20037;-80
2023/09/08 04:59:05;;;;;;;10.73;8.82;;;14.30;99.90;;;;;;4972130;28;20110;-81
2023/09/08 05:01:32;;;;;;;12.05;8.93;;;14.40;99.90;;;;;;4959240;28;20169;-81
2023/09/08 05:03:59;;;;;;;10.20;8.70;;;14.20;99.90;;;;;;4980811;28;20054;-80
2023/09/08 05:06:24;;;;;;;10.80;8.45;;;14.30;99.90;;;;;;4985561;28;20035;-80
2023/09/08 05:08:50;;;;;;;10.98;8.70;;;14.40;99.90;;;;;;4986849;28;20035;-80
2023/09/08 05:11:17;;;;;;;11.90;8.88;;;14.30;99.90;;;;;;4987349;28;20031;-80
2023/09/08 05:13:42;;;;;;;11.75;9.23;;;14.40;99.90;;;;;;4989456;28;20042;-79
2023/09/08 05:16:11;;;;;;;11.98;8.10;;;14.40;99.90;;;;;;4982740;28;20042;-79
2023/09/08 05:18:40;;;;;;;10.05;8.63;;;14.40;99.90;;;;;;4982614;28;20065;-79
2023/09/08 05:21:06;;;;;;;11.00;8.80;;;14.50;99.90;;;;;;4978987;28;20153;-81
2023/09/08 05:23:32;;;;;;;10.80;8.52;;;14.60;99.90;;;;;;4976534;28;20046;-80
2023/09/08 05:25:57;;;;;;;11.75;9.10;;;14.50;99.90;;;;;;4975090;28;20201;-80
2023/09/08 05:28:23;;;;;;;10.82;9.13;;;14.50;99.90;;;;;;4974994;28;20027;-80
2023/09/08 05:30:51;;;;;;;10.65;9.45;;;14.40;99.90;;;;;;4976340;28;20050;-79
2023/09/08 05:33:20;;;;;;;11.43;9.77;;;14.50;99.90;;;;;;4976142;28;20046;-81
2023/09/08 05:35:45;;;;;;;15.15;9.05;;;14.60;99.90;;;;;;4977094;28;20046;-81
2023/09/08 05:38:11;;;;;;;12.35;9.48;;;14.60;99.90;;;;;;4976753;28;20038;-81
2023/09/08 05:40:37;;;;;;;18.52;9.40;;;14.60;99.90;;;;;;4973094;28;20070;-80
2023/09/08 05:43:03;;;;;;;10.02;8.05;;;14.60;99.90;;;;;;4976272;28;20062;-81
2023/09/08 05:45:30;;;;;;;13.55;9.27;;;14.70;99.90;;;;;;4962223;28;20030;-80
2023/09/08 05:47:56;;;;;;;14.07;9.75;;;14.80;99.90;;;;;;4973257;28;20050;-80
2023/09/08 05:50:22;;;;;;;12.52;9.93;;;14.90;99.90;;;;;;4977130;28;20061;-81
2023/09/08 05:52:48;;;;;;;12.75;9.38;;;15.00;99.90;;;;;;4977715;28;20030;-81
2023/09/08 05:55:14;;;;;;;15.45;9.82;;;15.10;99.90;;;;;;4979270;28;20391;-83
2023/09/08 05:57:40;;;;;;;15.63;9.77;;;15.10;99.90;;;;;;4975757;28;20038;-79
2023/09/08 06:00:07;;;;;;;12.23;9.10;;;15.20;99.90;;;;;;4970297;28;20039;-83
2023/09/08 06:02:32;;;;;;;12.45;9.88;;;15.30;99.90;;;;;;4971326;28;20077;-80
2023/09/08 06:04:58;;;;;;;14.23;9.98;;;15.30;99.90;;;;;;4958057;28;20487;-81
2023/09/08 06:07:24;;;;;;;14.15;9.55;;;15.40;99.90;;;;;;4967685;28;20312;-81
2023/09/08 06:09:49;;;;;;;12.18;8.90;;;15.50;99.90;;;;;;4970375;28;20035;-81
2023/09/08 06:12:15;;;;;;;12.57;8.90;;;15.50;99.90;;;;;;4973275;28;20491;-81
2023/09/08 06:14:40;;;;;;;10.75;8.85;;;15.70;99.90;;;;;;4969057;28;20419;-81
2023/09/08 06:17:06;;;;;;;14.27;9.32;;;15.70;99.90;;;;;;4973137;28;20022;-80
2023/09/08 06:19:31;;;;;;;11.10;8.75;;;15.90;99.90;;;;;;4973640;28;20062;-80
2023/09/08 06:21:57;;;;;;;9.90;8.70;;;16.00;99.90;;;;;;4954398;28;20085;-80
2023/09/08 06:24:24;;;;;;;14.55;9.13;;;16.10;99.90;;;;;;4969183;28;20049;-80
2023/09/08 06:26:49;;;;;;;12.82;8.15;;;16.20;99.90;;;;;;4970791;28;20403;-80
2023/09/08 06:29:15;;;;;;;9.18;8.10;;;16.30;99.90;;;;;;4968736;28;20026;-80
2023/09/08 06:31:42;;;;;;;11.05;8.68;;;16.40;99.90;;;;;;4968398;28;20454;-80
2023/09/08 06:34:07;;;;;;;18.48;8.30;;;16.60;99.90;;;;;;4967697;28;20045;-80
2023/09/08 06:36:33;;;;;;;49.60;11.48;;;16.80;99.90;;;;;;4968936;28;20030;-81
2023/09/08 06:38:59;;;;;;;16.02;8.75;;;17.00;99.90;;;;;;4968149;28;20072;-80
2023/09/08 06:41:27;;;;;;;14.15;7.72;;;17.20;99.90;;;;;;4967097;28;20507;-80
2023/09/08 06:43:52;;;;;;;11.27;7.13;;;17.30;99.90;;;;;;4966669;28;20045;-81
2023/09/08 06:46:18;;;;;;;10.68;7.22;;;17.50;99.90;;;;;;4944785;28;20129;-80
2023/09/08 06:48:43;;;;;;;12.32;7.57;;;17.60;99.90;;;;;;4968037;28;20034;-80
2023/09/08 06:51:09;;;;;;;127.13;19.88;;;17.80;99.90;;;;;;4972264;28;20030;-80
2023/09/08 06:53:35;;;;;;;33.67;10.55;;;18.00;99.90;;;;;;4950986;28;20031;-80
2023/09/08 06:56:01;;;;;;;31.17;9.45;;;18.10;99.90;;;;;;4976788;28;20394;-80
2023/09/08 06:58:26;;;;;;;23.63;7.70;;;18.20;99.90;;;;;;4976362;28;20255;-80
2023/09/08 07:00:54;;;;;;;18.80;7.85;;;18.40;99.90;;;;;;4975667;28;20089;-80
2023/09/08 07:03:22;;;;;;;19.30;8.43;;;18.50;99.90;;;;;;4972737;28;20039;-79
2023/09/08 07:05:49;;;;;;;12.05;8.25;;;18.70;99.90;;;;;;4973028;28;20539;-80
2023/09/08 07:08:14;;;;;;;10.65;8.13;;;18.70;99.90;;;;;;4978335;28;20041;-80
2023/09/08 07:10:40;;;;;;;67.57;11.85;;;18.70;99.90;;;;;;4957801;28;20818;-80
2023/09/08 07:13:05;;;;;;;42.20;9.35;;;18.90;99.90;;;;;;4973310;28;20076;-81
2023/09/08 07:15:31;;;;;;;46.35;10.27;;;19.10;99.90;;;;;;4974172;28;20062;-81
2023/09/08 07:17:56;;;;;;;24.15;6.35;;;19.30;99.90;;;;;;4973141;28;20038;-80
2023/09/08 07:20:22;;;;;;;27.40;8.32;;;19.40;99.90;;;;;;4973546;28;20118;-81
2023/09/08 07:22:47;;;;;;;9.77;5.85;;;19.60;99.90;;;;;;4957767;28;20062;-80
2023/09/08 07:25:13;;;;;;;11.10;6.38;;;19.60;99.90;;;;;;4976514;28;20118;-80
2023/09/08 07:27:40;;;;;;;11.15;6.95;;;19.70;99.90;;;;;;4975797;28;20030;-80
2023/09/08 07:30:06;;;;;;;10.32;6.82;;;19.90;99.90;;;;;;4956527;28;20110;-80
2023/09/08 07:32:31;;;;;;;8.40;5.10;;;20.20;99.90;;;;;;4959046;28;20570;-81
2023/09/08 07:34:57;;;;;;;10.75;5.43;;;20.40;99.90;;;;;;4959463;28;20137;-80
2023/09/08 07:37:23;;;;;;;8.73;5.88;;;20.60;99.90;;;;;;4969823;28;20030;-80
2023/09/08 07:39:49;;;;;;;5.15;4.65;;;20.80;99.90;;;;;;4956584;28;20105;-80
2023/09/08 07:42:15;;;;;;;8.10;5.30;;;21.00;99.90;;;;;;4954269;28;20024;-80
2023/09/08 07:44:40;;;;;;;9.55;6.15;;;21.20;99.90;;;;;;4958457;28;20050;-80
2023/09/08 07:47:06;;;;;;;6.82;4.90;;;21.20;99.90;;;;;;4969360;28;20500;-80
2023/09/08 07:49:33;;;;;;;10.13;5.53;;;21.30;99.90;;;;;;4972585;28;20035;-78
2023/09/08 07:51:59;;;;;;;7.93;4.78;;;21.40;99.90;;;;;;4968840;28;20046;-78
2023/09/08 07:54:24;;;;;;;11.52;5.40;;;21.60;99.90;;;;;;4972767;28;20046;-79
2023/09/08 07:56:50;;;;;;;7.50;5.50;;;21.90;99.90;;;;;;4972651;28;20077;-80
2023/09/08 07:59:15;;;;;;;6.05;4.63;;;22.20;99.90;;;;;;4972370;28;20122;-79
2023/09/08 08:01:41;;;;;;;8.60;5.40;;;22.40;99.90;;;;;;4974385;28;20117;-79
2023/09/08 08:04:07;;;;;;;8.77;4.40;;;22.60;99.90;;;;;;4978881;28;20777;-79
2023/09/08 08:06:32;;;;;;;8.57;3.95;;;22.60;99.90;;;;;;4971636;28;20125;-79
2023/09/08 08:08:58;;;;;;;5.32;4.10;;;22.70;99.90;;;;;;4970739;28;20786;-79
2023/09/08 08:11:23;;;;;;;8.02;5.68;;;23.00;99.20;;;;;;4998250;28;20038;-78
2023/09/08 08:13:49;;;;;;;8.20;5.60;;;23.00;99.70;;;;;;4955497;28;20031;-80
2023/09/08 08:16:14;;;;;;;10.57;5.53;;;22.90;99.90;;;;;;4970671;28;20027;-80
2023/09/08 08:18:40;;;;;;;7.93;4.68;;;23.00;99.50;;;;;;4970976;28;20129;-79
2023/09/08 08:21:05;;;;;;;9.07;5.25;;;23.20;99.90;;;;;;4975405;28;20082;-81
2023/09/08 08:23:32;;;;;;;6.53;4.20;;;23.60;99.30;;;;;;4973676;28;20027;-79
2023/09/08 08:25:58;;;;;;;6.18;4.25;;;24.00;98.70;;;;;;4971558;28;20234;-79
2023/09/08 08:28:24;;;;;;;6.75;3.95;;;24.50;97.10;;;;;;4969942;28;20035;-79
2023/09/08 08:30:52;;;;;;;4.75;4.15;;;24.60;97.10;;;;;;4958888;28;20545;-80
2023/09/08 08:33:17;;;;;;;4.75;3.92;;;25.00;97.80;;;;;;4970953;28;20388;-79
2023/09/08 08:35:52;;;;;;;4.93;3.38;;;25.30;96.00;;;;;;4970181;28;20042;-79
2023/09/08 08:38:18;;;;;;;4.97;4.00;;;25.30;95.70;;;;;;4970423;28;20584;-79
2023/09/08 08:40:44;;;;;;;5.75;4.05;;;25.60;94.90;;;;;;4969448;28;20154;-80
2023/09/08 08:43:09;;;;;;;6.20;4.28;;;25.90;93.80;;;;;;4971358;28;20046;-81
2023/09/08 08:45:35;;;;;;;4.35;3.95;;;26.30;93.10;;;;;;4972536;28;20110;-81
2023/09/08 08:48:02;;;;;;;6.32;3.75;;;26.20;93.50;;;;;;4971535;28;20030;-80
2023/09/08 08:50:27;;;;;;;5.20;4.32;;;26.10;92.50;;;;;;4970809;28;20042;-80
2023/09/08 08:52:53;;;;;;;6.75;3.90;;;26.20;92.20;;;;;;4970252;28;20024;-81
2023/09/08 08:55:18;;;;;;;6.45;4.78;;;26.50;92.20;;;;;;4952050;28;20027;-80
2023/09/08 08:57:44;;;;;;;6.28;4.22;;;26.80;91.20;;;;;;4954425;28;20034;-80
2023/09/08 09:00:11;;;;;;;7.25;4.35;;;26.80;90.40;;;;;;4975537;28;20034;-80
2023/09/08 09:02:41;;;;;;;5.32;3.60;;;27.10;90.20;;;;;;4969440;28;20018;-78
2023/09/08 09:05:13;;;;;;;6.10;4.38;;;27.20;88.70;;;;;;4968120;28;20126;-78
2023/09/08 09:07:41;;;;;;;6.63;4.18;;;27.20;89.30;;;;;;4972732;28;20430;-80
2023/09/08 09:10:08;;;;;;;7.13;4.07;;;27.40;89.10;;;;;;4952783;28;20031;-80
2023/09/08 09:12:35;;;;;;;4.45;3.63;;;27.90;87.50;;;;;;4970850;28;20086;-80
2023/09/08 09:15:04;;;;;;;4.05;3.65;;;27.90;87.20;;;;;;4941309;28;20422;-80
2023/09/08 09:17:32;;;;;;;4.78;4.00;;;28.10;87.90;;;;;;4970201;28;20756;-81
2023/09/08 09:20:24;;;;;;;6.97;4.35;;;28.40;85.80;;;;;;4953862;28;20027;-80
2023/09/08 09:22:50;;;;;;;4.75;3.90;;;28.80;83.20;;;;;;4987349;28;20031;-80
2023/09/08 09:25:22;;;;;;;5.00;3.72;;;28.70;84.20;;;;;;4973730;28;20028;-80
2023/09/08 09:27:55;;;;;;;6.85;4.15;;;29.00;84.30;;;;;;4971869;28;20521;-80
2023/09/08 09:30:23;;;;;;;6.97;3.97;;;28.80;83.20;;;;;;4969136;28;20030;-80
2023/09/08 09:32:58;;;;;;;6.18;4.32;;;29.50;81.90;;;;;;4957206;28;20027;-81
2023/09/08 09:35:39;;;;;;;7.20;3.88;;;29.50;80.20;;;;;;4977971;28;20461;-81
2023/09/08 09:38:04;;;;;;;5.60;4.15;;;29.20;82.40;;;;;;4973682;28;20039;-80
2023/09/08 09:40:31;;;;;;;4.68;3.33;;;29.70;77.80;;;;;;4960453;28;20483;-81
2023/09/08 09:42:57;;;;;;;6.25;3.97;;;30.00;80.00;;;;;;4974554;28;20034;-82
2023/09/08 09:45:25;;;;;;;7.00;3.95;;;29.90;77.60;;;;;;4974246;28;20100;-82
2023/09/08 09:47:51;;;;;;;6.05;3.50;;;30.00;77.00;;;;;;4969989;28;20030;-81
2023/09/08 09:50:29;;;;;;;4.25;3.85;;;30.00;77.70;;;;;;4971522;28;20568;-81
2023/09/08 09:52:58;;;;;;;3.90;3.38;;;30.10;76.10;;;;;;4971124;28;20041;-82
2023/09/08 09:55:24;;;;;;;3.88;3.55;;;30.00;77.10;;;;;;4988922;28;20035;-82
2023/09/08 09:57:51;;;;;;;5.18;3.97;;;30.30;74.90;;;;;;4973160;28;20034;-82
2023/09/08 10:00:19;;;;;;;4.90;4.13;;;31.00;71.80;;;;;;4980129;28;20077;-82
2023/09/08 10:02:44;;;;;;;4.28;3.17;;;30.70;73.00;;;;;;4975261;28;20440;-82
2023/09/08 10:05:12;;;;;;;4.40;4.00;;;31.00;73.70;;;;;;4977968;28;20070;-82
2023/09/08 10:07:39;;;;;;;6.90;4.15;;;31.00;73.20;;;;;;4980965;28;20030;-82
2023/09/08 10:10:06;;;;;;;5.47;3.22;;;31.30;73.50;;;;;;4978607;28;20571;-81
2023/09/08 10:12:31;;;;;;;5.82;4.28;;;31.10;73.80;;;;;;4981556;28;20042;-82
2023/09/08 10:14:57;;;;;;;4.63;3.70;;;31.60;70.50;;;;;;4980847;28;20031;-83
2023/09/08 10:17:24;;;;;;;4.47;3.95;;;31.80;70.70;;;;;;4964721;28;20095;-83
2023/09/08 10:19:51;;;;;;;3.95;3.53;;;31.80;69.80;;;;;;4980362;28;20041;-83
2023/09/08 10:22:20;;;;;;;6.03;3.70;;;31.70;69.70;;;;;;4983782;28;20094;-83
2023/09/08 10:24:46;;;;;;;4.50;4.00;;;32.30;67.20;;;;;;4979253;28;20047;-83
2023/09/08 10:27:12;;;;;;;4.10;3.70;;;32.30;66.90;;;;;;4977939;28;20034;-83
2023/09/08 10:29:40;;;;;;;7.18;3.85;;;32.20;67.60;;;;;;4972062;28;20043;-82
2023/09/08 10:32:07;;;;;;;4.28;3.60;;;32.20;69.80;;;;;;4991993;28;20135;-82
2023/09/08 10:34:33;;;;;;;4.03;3.63;;;32.30;69.10;;;;;;4987948;28;20033;-83
2023/09/08 10:36:59;;;;;;;4.00;3.58;;;32.30;70.20;;;;;;4969583;28;20038;-81
2023/09/08 10:39:41;;;;;;;5.43;3.92;;;32.40;70.20;;;;;;4977387;28;20041;-82
2023/09/08 10:42:19;;;;;;;5.07;3.72;;;32.70;68.50;;;;;;4972561;28;20150;-82
2023/09/08 10:44:48;;;;;;;4.18;3.30;;;33.20;67.10;;;;;;4990639;28;20037;-82
2023/09/08 10:47:14;;;;;;;5.03;3.88;;;33.00;66.90;;;;;;4974633;28;20030;-82
2023/09/08 10:49:40;;;;;;;4.20;3.80;;;33.20;66.60;;;;;;4976184;28;20081;-82
2023/09/08 10:52:10;;;;;;;4.10;3.75;;;33.30;67.60;;;;;;4957832;28;20110;-83
2023/09/08 10:54:43;;;;;;;4.85;3.33;;;32.90;67.30;;;;;;4973924;28;20035;-83
2023/09/08 10:57:21;;;;;;;6.97;4.10;;;32.80;68.90;;;;;;4952029;28;20494;-82
2023/09/08 11:00:05;;;;;;;4.97;3.10;;;33.20;64.70;;;;;;4959875;28;20039;-82
2023/09/08 11:02:50;;;;;;;4.68;4.05;;;33.60;66.40;;;;;;4976857;28;20529;-82
2023/09/08 11:05:16;;;;;;;6.30;3.55;;;33.40;66.40;;;;;;4989798;28;20110;-82
2023/09/08 11:07:43;;;;;;;4.50;3.72;;;33.60;65.70;;;;;;4977449;28;20569;-82
2023/09/08 11:10:09;;;;;;;6.30;3.83;;;33.70;67.70;;;;;;4972838;28;20141;-82
2023/09/08 11:12:35;;;;;;;4.65;3.65;;;33.90;66.90;;;;;;4972979;28;20097;-82
2023/09/08 11:15:04;;;;;;;3.90;3.40;;;33.90;63.80;;;;;;4972690;28;20509;-82
2023/09/08 11:17:31;;;;;;;4.70;4.20;;;34.30;62.70;;;;;;4936211;28;20387;-82
2023/09/08 11:19:56;;;;;;;4.47;3.97;;;34.10;65.00;;;;;;4968401;28;20043;-82
2023/09/08 11:22:24;;;;;;;4.53;3.65;;;33.90;65.80;;;;;;4971944;28;20110;-82
2023/09/08 11:24:50;;;;;;;6.22;3.45;;;34.10;65.50;;;;;;4973111;28;20065;-81
2023/09/08 11:27:15;;;;;;;4.22;3.42;;;34.20;65.30;;;;;;4952394;28;20067;-82
2023/09/08 11:29:41;;;;;;;4.95;3.33;;;34.70;62.50;;;;;;4971309;28;20427;-81
2023/09/08 11:32:10;;;;;;;4.32;3.58;;;34.70;63.40;;;;;;4959753;28;20522;-82
2023/09/08 11:34:36;;;;;;;4.68;3.63;;;35.30;62.20;;;;;;4969777;28;20039;-81
2023/09/08 11:37:28;;;;;;;3.78;3.38;;;35.40;62.10;;;;;;4974071;28;20047;-81
2023/09/08 11:39:53;;;;;;;3.65;2.80;;;35.10;62.70;;;;;;4973541;28;20034;-81
2023/09/08 11:42:21;;;;;;;5.90;3.72;;;35.20;61.50;;;;;;4978087;28;20065;-81
2023/09/08 11:44:46;;;;;;;4.50;3.30;;;35.00;61.20;;;;;;4975817;28;20579;-81
2023/09/08 11:47:12;;;;;;;3.75;3.30;;;35.20;61.70;;;;;;4978457;28;20038;-81
2023/09/08 11:49:39;;;;;;;3.92;3.47;;;35.10;63.50;;;;;;4975269;28;20035;-81
2023/09/08 11:52:05;;;;;;;4.30;3.72;;;35.00;62.70;;;;;;4960437;28;20078;-82
2023/09/08 11:54:37;;;;;;;4.78;3.78;;;35.60;61.00;;;;;;4956549;28;20058;-80
2023/09/08 11:57:04;;;;;;;5.28;3.83;;;36.00;58.40;;;;;;4972727;28;20100;-82
2023/09/08 11:59:31;;;;;;;4.05;3.40;;;35.90;59.30;;;;;;4958273;28;20056;-80
2023/09/08 12:01:57;;;;;;;4.20;3.80;;;36.40;57.90;;;;;;4978089;28;20085;-81
2023/09/08 12:04:23;;;;;;;4.97;3.63;;;35.50;60.70;;;;;;4972087;28;20558;-80
2023/09/08 12:06:49;;;;;;;4.03;3.63;;;35.80;59.20;;;;;;4977396;28;20176;-80
2023/09/08 12:09:21;;;;;;;7.57;3.65;;;36.10;58.10;;;;;;4950127;28;20766;-81
2023/09/08 12:11:46;;;;;;;6.53;3.50;;;36.20;57.80;;;;;;4989975;28;20516;-81
2023/09/08 12:14:14;;;;;;;4.60;3.30;;;35.80;58.00;;;;;;4972559;28;20109;-81
2023/09/08 12:16:42;;;;;;;5.45;3.65;;;35.80;58.60;;;;;;4972725;28;20034;-81
2023/09/08 12:19:09;;;;;;;3.65;3.35;;;36.70;56.50;;;;;;4972757;28;20483;-80
2023/09/08 12:21:54;;;;;;;4.93;3.67;;;36.80;57.60;;;;;;4979965;28;20042;-80
2023/09/08 12:24:20;;;;;;;6.78;4.03;;;36.90;56.40;;;;;;4954229;28;20069;-81
2023/09/08 12:26:45;;;;;;;5.40;3.00;;;37.10;57.90;;;;;;4976506;28;20038;-81
2023/09/08 12:29:14;;;;;;;4.20;3.60;;;36.70;59.10;;;;;;4956566;28;20031;-81
2023/09/08 12:31:40;;;;;;;3.90;3.40;;;36.90;57.50;;;;;;4968502;28;21039;-81
2023/09/08 12:34:05;;;;;;;3.97;3.15;;;36.80;56.30;;;;;;4975571;28;20452;-81
2023/09/08 12:36:31;;;;;;;4.97;3.30;;;36.70;56.70;;;;;;4958382;28;20038;-80
2023/09/08 12:38:56;;;;;;;4.18;3.25;;;37.20;56.10;;;;;;4974379;28;20043;-81
2023/09/08 12:41:22;;;;;;;4.60;3.40;;;37.70;54.80;;;;;;4974243;28;20035;-81